createdAt,value
2022-10-30T00:03:46.964Z,4.55
2022-10-30T00:07:49.353Z,4.60
2022-10-30T00:11:51.415Z,4.82
2022-10-30T00:15:53.939Z,4.30
2022-10-30T00:19:55.945Z,4.13
2022-10-30T00:23:57.924Z,4.40
2022-10-30T00:27:59.931Z,4.30
2022-10-30T00:32:02.039Z,4.32
2022-10-30T00:36:04.325Z,4.10
2022-10-30T00:40:07.494Z,4.00
2022-10-30T00:44:31.382Z,4.20
2022-10-30T00:48:34.620Z,3.85
2022-10-30T00:52:42.859Z,4.40
2022-10-30T00:56:47.921Z,4.15
2022-10-30T01:00:54.564Z,4.72
2022-10-30T01:04:56.858Z,4.70
2022-10-30T01:09:00.341Z,4.50
2022-10-30T01:13:03.129Z,4.13
2022-10-30T01:17:42.396Z,4.57
2022-10-30T01:21:53.838Z,4.57
2022-10-30T01:26:14.125Z,4.10
2022-10-30T01:30:25.689Z,3.83
2022-10-30T01:34:38.669Z,4.10
2022-10-30T01:38:59.935Z,3.70
2022-10-30T01:43:02.735Z,3.85
2022-10-30T01:47:30.593Z,3.88
2022-10-30T01:51:41.817Z,3.85
2022-10-30T01:55:58.898Z,3.70
2022-10-30T02:00:07.229Z,3.72
2022-10-30T02:04:15.145Z,3.95
2022-10-30T02:08:17.780Z,3.50
2022-10-30T02:12:21.505Z,3.92
2022-10-30T02:16:24.438Z,4.13
2022-10-30T02:20:27.153Z,4.55
2022-10-30T02:24:30.550Z,4.53
2022-10-30T02:28:32.588Z,4.60
2022-10-30T02:32:35.009Z,5.30
2022-10-30T02:36:37.655Z,4.30
2022-10-30T02:40:39.709Z,4.32
2022-10-30T02:44:43.095Z,4.93
2022-10-30T02:48:45.146Z,4.65
2022-10-30T02:52:49.202Z,4.68
2022-10-30T02:56:52.283Z,4.68
2022-10-30T03:00:54.328Z,4.65
2022-10-30T03:04:56.452Z,4.80
2022-10-30T03:08:58.979Z,5.15
2022-10-30T03:13:00.985Z,5.32
2022-10-30T03:17:03.039Z,4.85
2022-10-30T03:21:07.178Z,5.20
2022-10-30T03:25:09.496Z,5.10
2022-10-30T03:29:11.551Z,5.03
2022-10-30T03:33:13.824Z,4.85
2022-10-30T03:37:15.885Z,4.68
2022-10-30T03:41:17.947Z,4.20
2022-10-30T03:45:19.999Z,4.18
2022-10-30T03:49:22.113Z,4.38
2022-10-30T03:53:26.219Z,4.20
2022-10-30T03:57:28.293Z,4.85
2022-10-30T04:01:49.749Z,4.20
2022-10-30T04:05:53.463Z,4.30
2022-10-30T04:09:55.992Z,5.05
2022-10-30T04:13:58.110Z,4.00
2022-10-30T04:18:00.779Z,4.70
2022-10-30T04:22:04.074Z,5.03
2022-10-30T04:26:06.413Z,4.40
2022-10-30T04:30:12.935Z,4.90
2022-10-30T04:34:15.072Z,4.55
2022-10-30T04:38:19.584Z,4.60
2022-10-30T04:42:22.901Z,5.00
2022-10-30T04:46:25.069Z,5.03
2022-10-30T04:50:31.341Z,5.00
2022-10-30T04:54:33.526Z,4.60
2022-10-30T04:58:35.576Z,4.50
2022-10-30T05:06:46.329Z,4.43
2022-10-30T05:10:51.134Z,3.78
2022-10-30T05:14:53.172Z,4.28
2022-10-30T05:18:55.219Z,4.22
2022-10-30T05:22:58.811Z,5.10
2022-10-30T05:27:01.512Z,5.20
2022-10-30T05:31:05.238Z,4.53
2022-10-30T05:35:27.923Z,5.05
2022-10-30T05:39:30.532Z,4.88
2022-10-30T05:43:33.528Z,5.07
2022-10-30T05:47:35.590Z,4.85
2022-10-30T05:51:40.472Z,4.88
2022-10-30T05:55:45.550Z,4.85
2022-10-30T05:59:53.482Z,4.95
2022-10-30T06:03:55.505Z,4.90
2022-10-30T06:07:57.677Z,5.40
2022-10-30T06:11:59.804Z,5.07
2022-10-30T06:16:13.787Z,5.57
2022-10-30T06:20:33.222Z,6.25
2022-10-30T06:24:55.215Z,7.05
2022-10-30T06:29:29.283Z,7.68
2022-10-30T06:33:31.517Z,6.68
2022-10-30T06:37:35.114Z,6.30
2022-10-30T06:41:42.916Z,5.97
2022-10-30T06:45:59.383Z,6.35
2022-10-30T06:50:02.951Z,6.50
2022-10-30T06:54:05.944Z,6.07
2022-10-30T06:58:38.896Z,5.57
2022-10-30T07:03:02.009Z,5.85
2022-10-30T07:07:05.031Z,5.55
2022-10-30T07:11:07.046Z,5.72
2022-10-30T07:15:30.276Z,6.28
2022-10-30T07:19:41.240Z,6.38
2022-10-30T07:23:43.369Z,5.93
2022-10-30T07:28:11.732Z,5.82
2022-10-30T07:32:18.981Z,5.65
2022-10-30T07:36:50.092Z,5.60
2022-10-30T07:41:15.384Z,5.28
2022-10-30T07:45:23.375Z,6.18
2022-10-30T07:49:44.183Z,6.20
2022-10-30T07:53:48.393Z,5.88
2022-10-30T07:57:50.977Z,5.40
2022-10-30T08:02:11.452Z,5.70
2022-10-30T08:06:46.129Z,5.43
2022-10-30T08:10:48.682Z,4.80
2022-10-30T08:14:52.279Z,5.20
2022-10-30T08:18:54.465Z,4.78
2022-10-30T08:23:00.138Z,6.45
2022-10-30T08:27:03.318Z,6.07
2022-10-30T08:31:05.981Z,6.43
2022-10-30T08:35:30.523Z,6.47
2022-10-30T08:39:34.035Z,7.53
2022-10-30T08:44:08.089Z,6.28
2022-10-30T08:48:30.335Z,7.32
2022-10-30T08:52:32.412Z,6.35
2022-10-30T08:56:34.481Z,6.93
2022-10-30T09:00:43.974Z,6.50
2022-10-30T09:04:46.006Z,6.60
2022-10-30T09:09:06.381Z,6.82
2022-10-30T09:13:16.777Z,5.22
2022-10-30T09:17:18.932Z,5.32
2022-10-30T09:21:22.470Z,4.85
2022-10-30T09:25:27.697Z,5.40
2022-10-30T09:29:48.830Z,5.40
2022-10-30T09:33:58.395Z,5.63
2022-10-30T09:38:16.118Z,5.63
2022-10-30T09:42:28.850Z,5.25
2022-10-30T09:47:06.877Z,5.65
2022-10-30T09:51:45.536Z,5.40
2022-10-30T09:56:08.501Z,5.60
2022-10-30T10:00:14.845Z,5.60
2022-10-30T10:04:35.210Z,5.43
2022-10-30T10:09:02.865Z,5.25
2022-10-30T10:13:47.816Z,4.85
2022-10-30T10:17:49.929Z,4.30
2022-10-30T10:22:00.564Z,4.10
2022-10-30T10:26:28.894Z,4.13
2022-10-30T10:31:02.779Z,4.20
2022-10-30T10:35:21.901Z,4.20
2022-10-30T10:39:52.028Z,4.55
2022-10-30T10:44:11.239Z,4.40
2022-10-30T10:48:31.617Z,4.00
2022-10-30T10:52:42.861Z,4.10
2022-10-30T10:56:47.999Z,4.57
2022-10-30T11:00:50.053Z,4.10
2022-10-30T11:04:55.676Z,4.07
2022-10-30T11:09:16.504Z,4.25
2022-10-30T11:13:18.524Z,3.80
2022-10-30T11:17:40.778Z,4.47
2022-10-30T11:21:48.189Z,3.75
2022-10-30T11:25:50.220Z,3.80
2022-10-30T11:30:01.668Z,3.80
2022-10-30T11:34:18.768Z,3.40
2022-10-30T11:38:21.205Z,3.00
2022-10-30T11:42:23.308Z,3.58
2022-10-30T11:46:25.487Z,3.05
2022-10-30T11:50:30.468Z,3.15
2022-10-30T11:54:37.957Z,3.17
2022-10-30T11:58:45.743Z,3.25
2022-10-30T12:02:51.501Z,3.13
2022-10-30T12:07:33.430Z,3.38
2022-10-30T12:11:37.349Z,2.75
2022-10-30T12:15:39.413Z,2.90
2022-10-30T12:19:53.981Z,2.95
2022-10-30T12:24:01.328Z,2.80
2022-10-30T12:28:33.942Z,3.08
2022-10-30T12:33:01.044Z,3.20
2022-10-30T12:37:28.507Z,2.80
2022-10-30T12:41:45.235Z,3.42
2022-10-30T12:45:51.132Z,3.25
2022-10-30T12:54:30.065Z,3.17
2022-10-30T12:58:46.460Z,3.10
2022-10-30T13:03:13.183Z,2.75
2022-10-30T13:07:47.562Z,2.80
2022-10-30T13:12:10.621Z,2.58
2022-10-30T13:16:30.069Z,2.70
2022-10-30T13:20:33.717Z,2.78
2022-10-30T13:25:04.253Z,2.80
2022-10-30T13:29:12.692Z,3.10
2022-10-30T13:33:36.769Z,3.05
2022-10-30T13:37:51.855Z,2.63
2022-10-30T13:42:12.309Z,2.95
2022-10-30T13:46:31.171Z,2.50
2022-10-30T13:51:21.491Z,2.65
2022-10-30T13:55:33.363Z,2.53
2022-10-30T13:59:55.893Z,2.60
2022-10-30T14:04:32.120Z,2.92
2022-10-30T14:09:10.752Z,2.40
2022-10-30T14:13:20.773Z,2.53
2022-10-30T14:17:22.786Z,2.53
2022-10-30T14:21:39.823Z,2.67
2022-10-30T14:25:42.960Z,2.80
2022-10-30T14:29:47.687Z,2.92
2022-10-30T14:33:54.003Z,2.65
2022-10-30T14:37:57.091Z,2.97
2022-10-30T14:42:18.534Z,3.60
2022-10-30T14:46:32.317Z,2.90
2022-10-30T14:50:59.909Z,2.80
2022-10-30T14:55:14.047Z,3.13
2022-10-30T14:59:16.040Z,2.60
2022-10-30T15:03:21.034Z,2.13
2022-10-30T15:07:50.406Z,2.30
2022-10-30T15:12:09.210Z,2.28
2022-10-30T15:16:16.338Z,2.40
2022-10-30T15:20:24.590Z,2.58
2022-10-30T15:24:32.393Z,2.40
2022-10-30T15:28:36.717Z,3.63
2022-10-30T15:32:40.722Z,3.85
2022-10-30T15:36:43.037Z,3.60
2022-10-30T15:40:45.283Z,2.88
2022-10-30T15:44:47.376Z,2.38
2022-10-30T15:48:49.855Z,2.30
2022-10-30T15:52:53.894Z,2.58
2022-10-30T16:01:26.272Z,3.00
2022-10-30T16:05:28.516Z,2.47
2022-10-30T16:09:30.738Z,3.10
2022-10-30T16:13:35.343Z,3.05
2022-10-30T16:17:37.531Z,2.90
2022-10-30T16:21:39.658Z,3.10
2022-10-30T16:25:47.020Z,3.13
2022-10-30T16:29:52.467Z,2.70
2022-10-30T16:33:57.181Z,2.63
2022-10-30T16:38:02.500Z,2.50
2022-10-30T16:42:04.699Z,2.65
2022-10-30T16:46:15.864Z,2.65
2022-10-30T16:50:20.390Z,2.70
2022-10-30T16:54:29.770Z,2.80
2022-10-30T16:58:31.962Z,3.33
2022-10-30T17:02:36.676Z,2.85
2022-10-30T17:06:40.271Z,2.80
2022-10-30T17:10:43.526Z,2.70
2022-10-30T17:14:49.933Z,2.25
2022-10-30T17:18:53.594Z,2.47
2022-10-30T17:23:25.767Z,2.50
2022-10-30T17:27:33.463Z,2.78
2022-10-30T17:31:38.472Z,2.83
2022-10-30T17:35:40.594Z,3.05
2022-10-30T17:39:42.707Z,3.28
2022-10-30T17:43:51.017Z,2.95
2022-10-30T17:47:53.483Z,3.15
2022-10-30T17:51:56.173Z,3.17
2022-10-30T17:56:05.286Z,3.00
2022-10-30T18:00:08.207Z,2.65
2022-10-30T18:04:20.492Z,2.80
2022-10-30T18:08:23.071Z,2.75
2022-10-30T18:12:25.113Z,3.53
2022-10-30T18:16:27.224Z,4.03
2022-10-30T18:20:29.576Z,4.30
2022-10-30T18:24:31.578Z,3.13
2022-10-30T18:28:33.595Z,4.63
2022-10-30T18:32:35.758Z,5.55
2022-10-30T18:36:37.738Z,6.28
2022-10-30T18:40:40.562Z,6.72
2022-10-30T18:44:42.584Z,6.07
2022-10-30T18:48:45.567Z,5.45
2022-10-30T18:52:48.124Z,5.40
2022-10-30T18:56:50.119Z,5.32
2022-10-30T19:01:11.196Z,6.43
2022-10-30T19:05:29.419Z,6.50
2022-10-30T19:09:32.535Z,6.35
2022-10-30T19:13:34.600Z,7.13
2022-10-30T19:17:36.672Z,7.30
2022-10-30T19:21:38.685Z,7.40
2022-10-30T19:25:44.215Z,7.25
2022-10-30T19:29:46.210Z,6.72
2022-10-30T19:33:53.025Z,6.07
2022-10-30T19:37:58.963Z,6.05
2022-10-30T19:42:01.213Z,6.00
2022-10-30T19:46:03.296Z,6.38
2022-10-30T19:50:28.325Z,6.22
2022-10-30T19:54:31.242Z,5.47
2022-10-30T19:58:33.335Z,5.60
2022-10-30T20:02:35.431Z,4.80
2022-10-30T20:06:37.490Z,4.70
2022-10-30T20:10:42.227Z,5.20
2022-10-30T20:14:44.273Z,5.13
2022-10-30T20:18:46.298Z,5.10
2022-10-30T20:22:48.628Z,5.13
2022-10-30T20:26:50.725Z,4.57
2022-10-30T20:30:53.952Z,4.82
2022-10-30T20:34:55.937Z,4.03
2022-10-30T20:38:58.237Z,4.10
2022-10-30T20:43:02.978Z,8.50
2022-10-30T20:47:05.329Z,7.20
2022-10-30T20:51:07.685Z,5.30
2022-10-30T20:55:11.029Z,6.57
2022-10-30T20:59:13.198Z,4.28
2022-10-30T21:03:15.373Z,4.10
2022-10-30T21:07:17.407Z,3.88
2022-10-30T21:11:19.415Z,3.95
2022-10-30T21:15:21.654Z,5.40
2022-10-30T21:19:23.874Z,5.70
2022-10-30T21:23:25.906Z,5.07
2022-10-30T21:27:27.897Z,4.78
2022-10-30T21:31:29.957Z,5.30
2022-10-30T21:35:31.964Z,4.40
2022-10-30T21:39:34.084Z,3.97
2022-10-30T21:43:36.104Z,4.10
2022-10-30T21:47:38.091Z,4.18
2022-10-30T21:51:41.161Z,6.38
2022-10-30T21:55:43.270Z,5.15
2022-10-30T21:59:45.336Z,4.45
2022-10-30T22:03:47.801Z,3.65
2022-10-30T22:07:52.259Z,3.85
2022-10-30T22:11:54.267Z,4.05
2022-10-30T22:15:56.359Z,3.40
2022-10-30T22:19:58.532Z,3.05
2022-10-30T22:24:01.432Z,2.85
2022-10-30T22:28:03.917Z,3.60
2022-10-30T22:32:06.240Z,4.10
2022-10-30T22:36:14.794Z,4.35
2022-10-30T22:40:16.854Z,4.30
2022-10-30T22:44:19.577Z,4.75
2022-10-30T22:48:21.653Z,5.07
2022-10-30T22:52:23.671Z,4.10
2022-10-30T22:56:28.934Z,4.32
2022-10-30T23:00:30.949Z,4.03
2022-10-30T23:04:32.978Z,3.75
2022-10-30T23:08:35.741Z,3.25
2022-10-30T23:12:37.754Z,2.80
2022-10-30T23:16:39.778Z,3.10
2022-10-30T23:20:43.762Z,2.72
2022-10-30T23:24:47.995Z,3.58
2022-10-30T23:28:52.563Z,3.08
2022-10-30T23:32:54.545Z,3.22
2022-10-30T23:36:59.184Z,3.40
2022-10-30T23:41:03.817Z,3.28
2022-10-30T23:45:06.421Z,3.30
2022-10-30T23:49:08.480Z,2.95
2022-10-30T23:53:10.488Z,3.60
2022-10-30T23:57:13.584Z,3.45
